sensor_id;sensor_type;location;lat;lon;timestamp;P1;durP1;ratioP1;P2;durP2;ratioP2
73158;SDS011;61370;48.594;10.202;2022-09-09T00:00:24;4.25;;;1.52;;
73158;SDS011;61370;48.594;10.202;2022-09-09T00:04:15;4.53;;;1.90;;
73158;SDS011;61370;48.594;10.202;2022-09-09T00:14:27;3.65;;;1.55;;
73158;SDS011;61370;48.594;10.202;2022-09-09T00:17:02;3.60;;;1.35;;
73158;SDS011;61370;48.594;10.202;2022-09-09T00:19:37;3.28;;;1.27;;
73158;SDS011;61370;48.594;10.202;2022-09-09T00:24:46;4.40;;;1.80;;
73158;SDS011;61370;48.594;10.202;2022-09-09T00:28:02;3.05;;;1.58;;
73158;SDS011;61370;48.594;10.202;2022-09-09T00:32:46;4.65;;;1.42;;
73158;SDS011;61370;48.594;10.202;2022-09-09T00:37:52;4.30;;;1.70;;
73158;SDS011;61370;48.594;10.202;2022-09-09T00:46:08;4.07;;;1.30;;
73158;SDS011;61370;48.594;10.202;2022-09-09T00:48:59;3.80;;;1.40;;
73158;SDS011;61370;48.594;10.202;2022-09-09T00:54:34;3.22;;;1.40;;
73158;SDS011;61370;48.594;10.202;2022-09-09T00:59:47;4.30;;;1.50;;
73158;SDS011;61370;48.594;10.202;2022-09-09T01:02:21;3.40;;;1.30;;
73158;SDS011;61370;48.594;10.202;2022-09-09T01:04:54;6.25;;;1.50;;
73158;SDS011;61370;48.594;10.202;2022-09-09T01:07:23;3.20;;;1.60;;
73158;SDS011;61370;48.594;10.202;2022-09-09T01:09:57;4.38;;;1.40;;
73158;SDS011;61370;48.594;10.202;2022-09-09T01:12:42;4.45;;;1.55;;
73158;SDS011;61370;48.594;10.202;2022-09-09T01:15:18;3.10;;;1.60;;
73158;SDS011;61370;48.594;10.202;2022-09-09T01:23:38;3.45;;;1.40;;
73158;SDS011;61370;48.594;10.202;2022-09-09T01:26:43;5.13;;;1.52;;
73158;SDS011;61370;48.594;10.202;2022-09-09T01:29:19;3.47;;;1.50;;
73158;SDS011;61370;48.594;10.202;2022-09-09T01:34:21;6.07;;;1.80;;
73158;SDS011;61370;48.594;10.202;2022-09-09T01:37:02;3.03;;;1.50;;
73158;SDS011;61370;48.594;10.202;2022-09-09T01:39:35;6.43;;;1.90;;
73158;SDS011;61370;48.594;10.202;2022-09-09T01:42:08;4.53;;;1.73;;
73158;SDS011;61370;48.594;10.202;2022-09-09T01:44:35;3.60;;;1.70;;
73158;SDS011;61370;48.594;10.202;2022-09-09T01:47:03;2.67;;;1.40;;
73158;SDS011;61370;48.594;10.202;2022-09-09T01:49:30;4.20;;;1.52;;
73158;SDS011;61370;48.594;10.202;2022-09-09T01:54:31;5.22;;;1.60;;
73158;SDS011;61370;48.594;10.202;2022-09-09T02:05:36;4.78;;;1.65;;
73158;SDS011;61370;48.594;10.202;2022-09-09T02:08:23;5.03;;;1.88;;
73158;SDS011;61370;48.594;10.202;2022-09-09T02:11:02;5.85;;;1.77;;
73158;SDS011;61370;48.594;10.202;2022-09-09T02:13:40;3.83;;;1.60;;
73158;SDS011;61370;48.594;10.202;2022-09-09T02:18:40;4.85;;;1.50;;
73158;SDS011;61370;48.594;10.202;2022-09-09T02:21:09;5.15;;;1.77;;
73158;SDS011;61370;48.594;10.202;2022-09-09T02:23:37;4.70;;;1.60;;
73158;SDS011;61370;48.594;10.202;2022-09-09T02:26:08;4.65;;;1.70;;
73158;SDS011;61370;48.594;10.202;2022-09-09T02:28:37;4.00;;;1.75;;
73158;SDS011;61370;48.594;10.202;2022-09-09T02:31:04;4.55;;;1.95;;
73158;SDS011;61370;48.594;10.202;2022-09-09T02:33:38;5.03;;;1.77;;
73158;SDS011;61370;48.594;10.202;2022-09-09T02:36:07;4.93;;;2.15;;
73158;SDS011;61370;48.594;10.202;2022-09-09T02:38:36;6.30;;;2.03;;
73158;SDS011;61370;48.594;10.202;2022-09-09T02:43:37;4.03;;;1.70;;
73158;SDS011;61370;48.594;10.202;2022-09-09T02:48:46;4.75;;;2.17;;
73158;SDS011;61370;48.594;10.202;2022-09-09T02:51:37;3.05;;;1.50;;
73158;SDS011;61370;48.594;10.202;2022-09-09T02:57:16;4.45;;;1.83;;
73158;SDS011;61370;48.594;10.202;2022-09-09T02:59:48;4.22;;;1.90;;
73158;SDS011;61370;48.594;10.202;2022-09-09T03:02:16;6.00;;;1.85;;
73158;SDS011;61370;48.594;10.202;2022-09-09T03:04:45;3.88;;;1.83;;
73158;SDS011;61370;48.594;10.202;2022-09-09T03:07:17;4.65;;;1.70;;
73158;SDS011;61370;48.594;10.202;2022-09-09T03:09:45;5.97;;;1.70;;
73158;SDS011;61370;48.594;10.202;2022-09-09T03:12:12;4.30;;;1.70;;
73158;SDS011;61370;48.594;10.202;2022-09-09T03:14:39;4.68;;;1.70;;
73158;SDS011;61370;48.594;10.202;2022-09-09T03:17:06;5.15;;;1.90;;
73158;SDS011;61370;48.594;10.202;2022-09-09T03:19:38;4.63;;;2.03;;
73158;SDS011;61370;48.594;10.202;2022-09-09T03:22:09;3.75;;;1.52;;
73158;SDS011;61370;48.594;10.202;2022-09-09T03:24:38;5.25;;;1.63;;
73158;SDS011;61370;48.594;10.202;2022-09-09T03:27:05;6.22;;;2.00;;
73158;SDS011;61370;48.594;10.202;2022-09-09T03:29:32;4.28;;;1.90;;
73158;SDS011;61370;48.594;10.202;2022-09-09T03:32:02;4.15;;;2.00;;
73158;SDS011;61370;48.594;10.202;2022-09-09T03:34:29;3.50;;;1.65;;
73158;SDS011;61370;48.594;10.202;2022-09-09T03:36:58;4.53;;;2.10;;
73158;SDS011;61370;48.594;10.202;2022-09-09T03:39:25;4.43;;;1.58;;
73158;SDS011;61370;48.594;10.202;2022-09-09T03:41:51;3.67;;;1.65;;
73158;SDS011;61370;48.594;10.202;2022-09-09T03:44:18;3.80;;;1.73;;
73158;SDS011;61370;48.594;10.202;2022-09-09T03:46:46;3.95;;;1.83;;
73158;SDS011;61370;48.594;10.202;2022-09-09T03:49:14;6.68;;;2.20;;
73158;SDS011;61370;48.594;10.202;2022-09-09T03:51:44;4.50;;;2.05;;
73158;SDS011;61370;48.594;10.202;2022-09-09T03:54:13;4.07;;;1.73;;
73158;SDS011;61370;48.594;10.202;2022-09-09T03:56:40;3.58;;;1.60;;
73158;SDS011;61370;48.594;10.202;2022-09-09T04:01:36;3.40;;;1.70;;
73158;SDS011;61370;48.594;10.202;2022-09-09T04:04:02;6.75;;;1.92;;
73158;SDS011;61370;48.594;10.202;2022-09-09T04:06:29;4.22;;;2.03;;
73158;SDS011;61370;48.594;10.202;2022-09-09T04:08:56;4.72;;;1.70;;
73158;SDS011;61370;48.594;10.202;2022-09-09T04:11:24;4.57;;;1.70;;
73158;SDS011;61370;48.594;10.202;2022-09-09T04:13:53;5.03;;;1.80;;
73158;SDS011;61370;48.594;10.202;2022-09-09T04:16:20;3.80;;;1.85;;
73158;SDS011;61370;48.594;10.202;2022-09-09T04:18:46;5.15;;;1.85;;
73158;SDS011;61370;48.594;10.202;2022-09-09T04:21:15;5.20;;;1.90;;
73158;SDS011;61370;48.594;10.202;2022-09-09T04:23:42;3.67;;;1.88;;
73158;SDS011;61370;48.594;10.202;2022-09-09T04:26:09;6.60;;;2.08;;
73158;SDS011;61370;48.594;10.202;2022-09-09T04:28:36;4.47;;;2.13;;
73158;SDS011;61370;48.594;10.202;2022-09-09T04:33:44;4.45;;;1.92;;
73158;SDS011;61370;48.594;10.202;2022-09-09T04:36:12;4.65;;;1.75;;
73158;SDS011;61370;48.594;10.202;2022-09-09T04:38:39;5.35;;;1.58;;
73158;SDS011;61370;48.594;10.202;2022-09-09T04:41:06;12.85;;;2.28;;
73158;SDS011;61370;48.594;10.202;2022-09-09T04:43:34;5.82;;;2.55;;
73158;SDS011;61370;48.594;10.202;2022-09-09T04:46:03;6.18;;;2.13;;
73158;SDS011;61370;48.594;10.202;2022-09-09T04:48:29;5.55;;;2.30;;
73158;SDS011;61370;48.594;10.202;2022-09-09T04:50:58;4.95;;;2.00;;
73158;SDS011;61370;48.594;10.202;2022-09-09T04:53:28;3.72;;;1.70;;
73158;SDS011;61370;48.594;10.202;2022-09-09T04:56:01;3.42;;;1.63;;
73158;SDS011;61370;48.594;10.202;2022-09-09T04:58:31;4.20;;;2.10;;
73158;SDS011;61370;48.594;10.202;2022-09-09T05:03:46;3.95;;;1.95;;
73158;SDS011;61370;48.594;10.202;2022-09-09T05:08:44;4.85;;;2.10;;
73158;SDS011;61370;48.594;10.202;2022-09-09T05:11:20;3.75;;;1.77;;
73158;SDS011;61370;48.594;10.202;2022-09-09T05:13:55;4.40;;;2.00;;
73158;SDS011;61370;48.594;10.202;2022-09-09T05:16:27;4.40;;;2.15;;
73158;SDS011;61370;48.594;10.202;2022-09-09T05:18:56;5.22;;;1.90;;
73158;SDS011;61370;48.594;10.202;2022-09-09T05:21:24;6.60;;;1.95;;
73158;SDS011;61370;48.594;10.202;2022-09-09T05:23:54;4.05;;;2.00;;
73158;SDS011;61370;48.594;10.202;2022-09-09T05:26:32;4.00;;;2.00;;
73158;SDS011;61370;48.594;10.202;2022-09-09T05:29:11;5.70;;;1.88;;
73158;SDS011;61370;48.594;10.202;2022-09-09T05:31:45;5.95;;;2.28;;
73158;SDS011;61370;48.594;10.202;2022-09-09T05:34:17;6.82;;;2.40;;
73158;SDS011;61370;48.594;10.202;2022-09-09T05:36:47;6.53;;;2.00;;
73158;SDS011;61370;48.594;10.202;2022-09-09T05:39:15;5.30;;;2.15;;
73158;SDS011;61370;48.594;10.202;2022-09-09T05:41:42;6.13;;;1.92;;
73158;SDS011;61370;48.594;10.202;2022-09-09T05:44:09;4.68;;;2.00;;
73158;SDS011;61370;48.594;10.202;2022-09-09T05:46:38;5.20;;;1.92;;
73158;SDS011;61370;48.594;10.202;2022-09-09T05:49:05;4.60;;;2.15;;
73158;SDS011;61370;48.594;10.202;2022-09-09T05:51:33;4.47;;;1.95;;
73158;SDS011;61370;48.594;10.202;2022-09-09T05:54:08;5.18;;;2.00;;
73158;SDS011;61370;48.594;10.202;2022-09-09T05:56:39;4.95;;;1.80;;
73158;SDS011;61370;48.594;10.202;2022-09-09T05:59:11;4.25;;;1.92;;
73158;SDS011;61370;48.594;10.202;2022-09-09T06:01:42;5.88;;;1.80;;
73158;SDS011;61370;48.594;10.202;2022-09-09T06:04:17;4.28;;;1.75;;
73158;SDS011;61370;48.594;10.202;2022-09-09T06:06:44;5.13;;;1.85;;
73158;SDS011;61370;48.594;10.202;2022-09-09T06:09:25;6.13;;;2.15;;
73158;SDS011;61370;48.594;10.202;2022-09-09T06:11:52;4.45;;;1.85;;
73158;SDS011;61370;48.594;10.202;2022-09-09T06:14:21;5.60;;;2.00;;
73158;SDS011;61370;48.594;10.202;2022-09-09T06:16:50;7.00;;;2.67;;
73158;SDS011;61370;48.594;10.202;2022-09-09T06:19:25;6.85;;;2.00;;
73158;SDS011;61370;48.594;10.202;2022-09-09T06:21:55;4.15;;;2.38;;
73158;SDS011;61370;48.594;10.202;2022-09-09T06:24:21;5.50;;;2.10;;
73158;SDS011;61370;48.594;10.202;2022-09-09T06:26:48;7.18;;;2.17;;
73158;SDS011;61370;48.594;10.202;2022-09-09T06:29:26;3.72;;;2.17;;
73158;SDS011;61370;48.594;10.202;2022-09-09T06:31:53;5.53;;;2.30;;
73158;SDS011;61370;48.594;10.202;2022-09-09T06:34:21;5.57;;;2.00;;
73158;SDS011;61370;48.594;10.202;2022-09-09T06:36:52;5.45;;;2.08;;
73158;SDS011;61370;48.594;10.202;2022-09-09T06:39:19;6.10;;;2.00;;
73158;SDS011;61370;48.594;10.202;2022-09-09T06:41:46;5.75;;;2.00;;
73158;SDS011;61370;48.594;10.202;2022-09-09T06:44:42;4.72;;;1.95;;
73158;SDS011;61370;48.594;10.202;2022-09-09T06:47:13;3.97;;;2.00;;
73158;SDS011;61370;48.594;10.202;2022-09-09T06:49:41;4.20;;;2.03;;
73158;SDS011;61370;48.594;10.202;2022-09-09T06:52:10;4.68;;;1.92;;
73158;SDS011;61370;48.594;10.202;2022-09-09T06:54:38;4.80;;;2.20;;
73158;SDS011;61370;48.594;10.202;2022-09-09T06:57:05;5.00;;;1.90;;
73158;SDS011;61370;48.594;10.202;2022-09-09T06:59:33;5.53;;;2.20;;
73158;SDS011;61370;48.594;10.202;2022-09-09T07:02:00;7.97;;;2.42;;
73158;SDS011;61370;48.594;10.202;2022-09-09T07:04:29;4.60;;;2.22;;
73158;SDS011;61370;48.594;10.202;2022-09-09T07:06:56;6.68;;;2.05;;
73158;SDS011;61370;48.594;10.202;2022-09-09T07:09:24;5.85;;;2.60;;
73158;SDS011;61370;48.594;10.202;2022-09-09T07:11:53;5.07;;;2.60;;
73158;SDS011;61370;48.594;10.202;2022-09-09T07:14:21;3.80;;;2.25;;
73158;SDS011;61370;48.594;10.202;2022-09-09T07:16:52;3.42;;;2.00;;
73158;SDS011;61370;48.594;10.202;2022-09-09T07:19:19;5.22;;;2.30;;
73158;SDS011;61370;48.594;10.202;2022-09-09T07:21:50;5.28;;;2.33;;
73158;SDS011;61370;48.594;10.202;2022-09-09T07:24:19;6.22;;;1.88;;
73158;SDS011;61370;48.594;10.202;2022-09-09T07:26:47;5.30;;;2.00;;
73158;SDS011;61370;48.594;10.202;2022-09-09T07:29:14;4.43;;;2.10;;
73158;SDS011;61370;48.594;10.202;2022-09-09T07:31:42;5.82;;;2.15;;
73158;SDS011;61370;48.594;10.202;2022-09-09T07:34:13;4.00;;;1.70;;
73158;SDS011;61370;48.594;10.202;2022-09-09T07:36:41;4.40;;;1.52;;
73158;SDS011;61370;48.594;10.202;2022-09-09T07:39:12;4.47;;;1.80;;
73158;SDS011;61370;48.594;10.202;2022-09-09T07:41:46;4.80;;;1.80;;
73158;SDS011;61370;48.594;10.202;2022-09-09T07:44:20;7.55;;;2.10;;
73158;SDS011;61370;48.594;10.202;2022-09-09T07:46:50;6.18;;;1.98;;
73158;SDS011;61370;48.594;10.202;2022-09-09T07:49:22;5.28;;;1.90;;
73158;SDS011;61370;48.594;10.202;2022-09-09T07:51:49;5.47;;;1.88;;
73158;SDS011;61370;48.594;10.202;2022-09-09T07:54:17;4.55;;;1.70;;
73158;SDS011;61370;48.594;10.202;2022-09-09T07:56:52;4.65;;;1.60;;
73158;SDS011;61370;48.594;10.202;2022-09-09T07:59:21;3.13;;;1.52;;
73158;SDS011;61370;48.594;10.202;2022-09-09T08:01:51;5.43;;;2.00;;
73158;SDS011;61370;48.594;10.202;2022-09-09T08:04:24;4.32;;;1.70;;
73158;SDS011;61370;48.594;10.202;2022-09-09T08:06:53;3.38;;;1.40;;
73158;SDS011;61370;48.594;10.202;2022-09-09T08:09:24;4.82;;;1.63;;
73158;SDS011;61370;48.594;10.202;2022-09-09T08:11:55;5.68;;;1.40;;
73158;SDS011;61370;48.594;10.202;2022-09-09T08:16:50;4.00;;;1.30;;
73158;SDS011;61370;48.594;10.202;2022-09-09T08:19:22;4.75;;;1.60;;
73158;SDS011;61370;48.594;10.202;2022-09-09T08:21:49;4.82;;;1.38;;
73158;SDS011;61370;48.594;10.202;2022-09-09T08:24:16;4.88;;;1.83;;
73158;SDS011;61370;48.594;10.202;2022-09-09T08:26:48;3.47;;;1.40;;
73158;SDS011;61370;48.594;10.202;2022-09-09T08:29:16;5.05;;;1.63;;
73158;SDS011;61370;48.594;10.202;2022-09-09T08:31:45;4.68;;;1.65;;
73158;SDS011;61370;48.594;10.202;2022-09-09T08:34:14;3.88;;;1.35;;
73158;SDS011;61370;48.594;10.202;2022-09-09T08:36:44;4.10;;;1.40;;
73158;SDS011;61370;48.594;10.202;2022-09-09T08:39:13;4.28;;;1.58;;
73158;SDS011;61370;48.594;10.202;2022-09-09T08:50:49;3.60;;;1.48;;
73158;SDS011;61370;48.594;10.202;2022-09-09T08:53:29;5.03;;;1.52;;
73158;SDS011;61370;48.594;10.202;2022-09-09T08:56:00;3.65;;;1.63;;
73158;SDS011;61370;48.594;10.202;2022-09-09T08:58:45;3.67;;;1.65;;
73158;SDS011;61370;48.594;10.202;2022-09-09T09:01:27;4.63;;;1.60;;
73158;SDS011;61370;48.594;10.202;2022-09-09T09:04:26;3.67;;;1.42;;
73158;SDS011;61370;48.594;10.202;2022-09-09T09:12:21;5.28;;;1.52;;
73158;SDS011;61370;48.594;10.202;2022-09-09T09:14:49;3.30;;;1.20;;
73158;SDS011;61370;48.594;10.202;2022-09-09T09:17:18;3.92;;;1.20;;
73158;SDS011;61370;48.594;10.202;2022-09-09T09:19:46;3.83;;;1.33;;
73158;SDS011;61370;48.594;10.202;2022-09-09T09:27:35;3.38;;;1.10;;
73158;SDS011;61370;48.594;10.202;2022-09-09T09:30:24;2.85;;;1.17;;
73158;SDS011;61370;48.594;10.202;2022-09-09T09:33:23;1.98;;;1.00;;
73158;SDS011;61370;48.594;10.202;2022-09-09T09:35:53;3.85;;;0.98;;
73158;SDS011;61370;48.594;10.202;2022-09-09T09:38:22;2.90;;;1.10;;
73158;SDS011;61370;48.594;10.202;2022-09-09T09:40:54;2.78;;;0.82;;
73158;SDS011;61370;48.594;10.202;2022-09-09T09:43:25;2.45;;;1.00;;
73158;SDS011;61370;48.594;10.202;2022-09-09T09:46:03;4.65;;;1.05;;
73158;SDS011;61370;48.594;10.202;2022-09-09T09:48:31;2.15;;;0.98;;
73158;SDS011;61370;48.594;10.202;2022-09-09T09:51:32;4.20;;;1.10;;
73158;SDS011;61370;48.594;10.202;2022-09-09T09:53:51;4.30;;;1.35;;
73158;SDS011;61370;48.594;10.202;2022-09-09T09:56:26;2.83;;;0.80;;
73158;SDS011;61370;48.594;10.202;2022-09-09T09:59:00;3.10;;;0.93;;
73158;SDS011;61370;48.594;10.202;2022-09-09T10:01:33;4.35;;;1.05;;
73158;SDS011;61370;48.594;10.202;2022-09-09T10:04:18;3.35;;;0.90;;
73158;SDS011;61370;48.594;10.202;2022-09-09T10:06:54;4.28;;;1.00;;
73158;SDS011;61370;48.594;10.202;2022-09-09T10:11:55;4.50;;;1.20;;
73158;SDS011;61370;48.594;10.202;2022-09-09T10:20:04;3.80;;;1.08;;
73158;SDS011;61370;48.594;10.202;2022-09-09T10:22:59;4.00;;;1.10;;
73158;SDS011;61370;48.594;10.202;2022-09-09T10:25:43;3.08;;;0.90;;
73158;SDS011;61370;48.594;10.202;2022-09-09T10:31:09;5.90;;;1.20;;
73158;SDS011;61370;48.594;10.202;2022-09-09T10:34:06;3.20;;;1.40;;
73158;SDS011;61370;48.594;10.202;2022-09-09T10:36:55;4.68;;;1.35;;
73158;SDS011;61370;48.594;10.202;2022-09-09T10:39:34;4.03;;;1.30;;
73158;SDS011;61370;48.594;10.202;2022-09-09T10:42:09;4.63;;;1.20;;
73158;SDS011;61370;48.594;10.202;2022-09-09T10:53:00;3.40;;;1.10;;
73158;SDS011;61370;48.594;10.202;2022-09-09T10:55:40;2.97;;;1.27;;
73158;SDS011;61370;48.594;10.202;2022-09-09T10:58:14;3.28;;;1.10;;
73158;SDS011;61370;48.594;10.202;2022-09-09T11:00:51;3.95;;;1.00;;
73158;SDS011;61370;48.594;10.202;2022-09-09T11:03:26;2.58;;;0.60;;
73158;SDS011;61370;48.594;10.202;2022-09-09T11:06:00;2.63;;;0.60;;
73158;SDS011;61370;48.594;10.202;2022-09-09T11:08:31;2.50;;;0.68;;
73158;SDS011;61370;48.594;10.202;2022-09-09T11:16:53;2.80;;;0.80;;
73158;SDS011;61370;48.594;10.202;2022-09-09T11:19:34;3.30;;;0.70;;
73158;SDS011;61370;48.594;10.202;2022-09-09T11:22:04;3.75;;;0.85;;
73158;SDS011;61370;48.594;10.202;2022-09-09T11:24:38;1.50;;;0.60;;
73158;SDS011;61370;48.594;10.202;2022-09-09T11:27:14;3.50;;;1.00;;
73158;SDS011;61370;48.594;10.202;2022-09-09T11:40:58;2.80;;;0.80;;
73158;SDS011;61370;48.594;10.202;2022-09-09T11:46:12;3.28;;;0.90;;
73158;SDS011;61370;48.594;10.202;2022-09-09T11:48:57;1.90;;;0.60;;
73158;SDS011;61370;48.594;10.202;2022-09-09T11:51:26;2.83;;;0.90;;
73158;SDS011;61370;48.594;10.202;2022-09-09T11:56:29;4.20;;;0.63;;
73158;SDS011;61370;48.594;10.202;2022-09-09T11:59:19;1.75;;;0.60;;
73158;SDS011;61370;48.594;10.202;2022-09-09T12:14:43;2.10;;;0.70;;
73158;SDS011;61370;48.594;10.202;2022-09-09T12:17:22;3.47;;;0.60;;
73158;SDS011;61370;48.594;10.202;2022-09-09T12:22:43;3.25;;;0.63;;
73158;SDS011;61370;48.594;10.202;2022-09-09T12:25:26;1.90;;;0.52;;
73158;SDS011;61370;48.594;10.202;2022-09-09T12:31:11;3.00;;;0.70;;
73158;SDS011;61370;48.594;10.202;2022-09-09T12:33:44;2.65;;;0.65;;
73158;SDS011;61370;48.594;10.202;2022-09-09T12:36:15;2.55;;;0.70;;
73158;SDS011;61370;48.594;10.202;2022-09-09T12:38:43;2.30;;;0.70;;
73158;SDS011;61370;48.594;10.202;2022-09-09T12:41:18;2.70;;;0.70;;
73158;SDS011;61370;48.594;10.202;2022-09-09T12:43:49;3.35;;;0.70;;
73158;SDS011;61370;48.594;10.202;2022-09-09T12:49:00;3.47;;;0.73;;
73158;SDS011;61370;48.594;10.202;2022-09-09T12:51:30;2.08;;;1.10;;
73158;SDS011;61370;48.594;10.202;2022-09-09T12:53:58;2.50;;;0.98;;
73158;SDS011;61370;48.594;10.202;2022-09-09T12:56:26;4.03;;;0.80;;
73158;SDS011;61370;48.594;10.202;2022-09-09T12:58:54;3.80;;;0.80;;
73158;SDS011;61370;48.594;10.202;2022-09-09T13:01:28;2.42;;;0.82;;
73158;SDS011;61370;48.594;10.202;2022-09-09T13:03:56;1.95;;;0.73;;
73158;SDS011;61370;48.594;10.202;2022-09-09T13:08:52;1.92;;;0.63;;
73158;SDS011;61370;48.594;10.202;2022-09-09T13:11:42;2.25;;;0.70;;
73158;SDS011;61370;48.594;10.202;2022-09-09T13:14:14;2.42;;;0.70;;
73158;SDS011;61370;48.594;10.202;2022-09-09T13:16:57;2.47;;;0.60;;
73158;SDS011;61370;48.594;10.202;2022-09-09T13:19:28;1.45;;;0.70;;
73158;SDS011;61370;48.594;10.202;2022-09-09T13:21:56;1.63;;;0.55;;
73158;SDS011;61370;48.594;10.202;2022-09-09T13:27:04;2.65;;;0.60;;
73158;SDS011;61370;48.594;10.202;2022-09-09T13:29:51;1.13;;;0.50;;
73158;SDS011;61370;48.594;10.202;2022-09-09T13:32:22;1.00;;;0.70;;
73158;SDS011;61370;48.594;10.202;2022-09-09T13:34:50;3.70;;;0.80;;
73158;SDS011;61370;48.594;10.202;2022-09-09T13:37:34;1.70;;;0.70;;
73158;SDS011;61370;48.594;10.202;2022-09-09T13:40:02;3.35;;;0.73;;
73158;SDS011;61370;48.594;10.202;2022-09-09T13:42:32;1.45;;;0.60;;
73158;SDS011;61370;48.594;10.202;2022-09-09T13:45:01;7.47;;;1.13;;
73158;SDS011;61370;48.594;10.202;2022-09-09T13:47:31;2.65;;;0.85;;
73158;SDS011;61370;48.594;10.202;2022-09-09T13:50:09;6.60;;;1.00;;
73158;SDS011;61370;48.594;10.202;2022-09-09T13:52:44;1.95;;;0.90;;
73158;SDS011;61370;48.594;10.202;2022-09-09T13:55:10;1.67;;;0.70;;
73158;SDS011;61370;48.594;10.202;2022-09-09T13:57:37;3.15;;;0.73;;
73158;SDS011;61370;48.594;10.202;2022-09-09T14:00:03;2.55;;;0.70;;
73158;SDS011;61370;48.594;10.202;2022-09-09T14:02:32;4.13;;;0.80;;
73158;SDS011;61370;48.594;10.202;2022-09-09T14:05:00;4.32;;;0.82;;
73158;SDS011;61370;48.594;10.202;2022-09-09T14:07:27;2.55;;;0.77;;
73158;SDS011;61370;48.594;10.202;2022-09-09T14:09:55;2.70;;;0.73;;
73158;SDS011;61370;48.594;10.202;2022-09-09T14:12:21;2.85;;;0.80;;
73158;SDS011;61370;48.594;10.202;2022-09-09T14:14:47;2.13;;;0.57;;
73158;SDS011;61370;48.594;10.202;2022-09-09T14:17:14;3.88;;;0.70;;
73158;SDS011;61370;48.594;10.202;2022-09-09T14:19:40;2.72;;;0.80;;
73158;SDS011;61370;48.594;10.202;2022-09-09T14:22:07;2.45;;;0.90;;
73158;SDS011;61370;48.594;10.202;2022-09-09T14:24:33;3.47;;;0.73;;
73158;SDS011;61370;48.594;10.202;2022-09-09T14:27:00;2.63;;;0.80;;
73158;SDS011;61370;48.594;10.202;2022-09-09T14:29:30;1.42;;;0.50;;
73158;SDS011;61370;48.594;10.202;2022-09-09T14:31:57;2.28;;;0.60;;
73158;SDS011;61370;48.594;10.202;2022-09-09T14:34:23;3.22;;;0.90;;
73158;SDS011;61370;48.594;10.202;2022-09-09T14:36:50;1.88;;;0.77;;
73158;SDS011;61370;48.594;10.202;2022-09-09T14:39:17;2.80;;;0.73;;
73158;SDS011;61370;48.594;10.202;2022-09-09T14:41:43;2.28;;;0.70;;
73158;SDS011;61370;48.594;10.202;2022-09-09T14:44:11;2.85;;;0.75;;
73158;SDS011;61370;48.594;10.202;2022-09-09T14:46:38;2.80;;;0.80;;
73158;SDS011;61370;48.594;10.202;2022-09-09T14:49:04;2.10;;;0.60;;
73158;SDS011;61370;48.594;10.202;2022-09-09T14:51:31;3.38;;;0.80;;
73158;SDS011;61370;48.594;10.202;2022-09-09T14:53:58;4.95;;;0.80;;
73158;SDS011;61370;48.594;10.202;2022-09-09T14:56:26;2.78;;;1.00;;
73158;SDS011;61370;48.594;10.202;2022-09-09T14:58:55;3.65;;;0.70;;
73158;SDS011;61370;48.594;10.202;2022-09-09T15:01:23;4.05;;;0.80;;
73158;SDS011;61370;48.594;10.202;2022-09-09T15:03:57;2.55;;;0.75;;
73158;SDS011;61370;48.594;10.202;2022-09-09T15:06:26;2.85;;;0.70;;
73158;SDS011;61370;48.594;10.202;2022-09-09T15:08:55;3.13;;;0.65;;
73158;SDS011;61370;48.594;10.202;2022-09-09T15:11:26;2.70;;;0.63;;
73158;SDS011;61370;48.594;10.202;2022-09-09T15:13:53;3.17;;;0.80;;
73158;SDS011;61370;48.594;10.202;2022-09-09T15:16:21;2.60;;;0.60;;
73158;SDS011;61370;48.594;10.202;2022-09-09T15:18:51;3.50;;;0.60;;
73158;SDS011;61370;48.594;10.202;2022-09-09T15:21:21;2.25;;;0.70;;
73158;SDS011;61370;48.594;10.202;2022-09-09T15:23:49;1.65;;;0.60;;
73158;SDS011;61370;48.594;10.202;2022-09-09T15:26:15;2.67;;;0.60;;
73158;SDS011;61370;48.594;10.202;2022-09-09T15:28:43;2.60;;;0.50;;
73158;SDS011;61370;48.594;10.202;2022-09-09T15:31:11;2.00;;;0.63;;
73158;SDS011;61370;48.594;10.202;2022-09-09T15:33:52;2.00;;;0.77;;
73158;SDS011;61370;48.594;10.202;2022-09-09T15:36:47;3.08;;;0.70;;
73158;SDS011;61370;48.594;10.202;2022-09-09T15:39:16;2.10;;;0.70;;
73158;SDS011;61370;48.594;10.202;2022-09-09T15:41:44;3.40;;;1.05;;
73158;SDS011;61370;48.594;10.202;2022-09-09T15:44:12;2.40;;;0.60;;
73158;SDS011;61370;48.594;10.202;2022-09-09T15:46:41;3.10;;;0.70;;
73158;SDS011;61370;48.594;10.202;2022-09-09T15:51:36;2.60;;;0.75;;
73158;SDS011;61370;48.594;10.202;2022-09-09T15:54:04;2.55;;;0.70;;
73158;SDS011;61370;48.594;10.202;2022-09-09T15:56:31;2.38;;;0.70;;
73158;SDS011;61370;48.594;10.202;2022-09-09T15:58:59;3.67;;;0.73;;
73158;SDS011;61370;48.594;10.202;2022-09-09T16:01:26;1.13;;;0.60;;
73158;SDS011;61370;48.594;10.202;2022-09-09T16:03:53;3.33;;;0.70;;
73158;SDS011;61370;48.594;10.202;2022-09-09T16:06:20;2.42;;;0.82;;
73158;SDS011;61370;48.594;10.202;2022-09-09T16:08:49;3.72;;;0.70;;
73158;SDS011;61370;48.594;10.202;2022-09-09T16:11:18;2.13;;;0.70;;
73158;SDS011;61370;48.594;10.202;2022-09-09T16:13:46;3.15;;;0.65;;
73158;SDS011;61370;48.594;10.202;2022-09-09T16:16:18;2.65;;;0.80;;
73158;SDS011;61370;48.594;10.202;2022-09-09T16:18:50;4.43;;;0.82;;
73158;SDS011;61370;48.594;10.202;2022-09-09T16:21:19;1.98;;;0.63;;
73158;SDS011;61370;48.594;10.202;2022-09-09T16:23:55;2.50;;;0.80;;
73158;SDS011;61370;48.594;10.202;2022-09-09T16:26:25;3.10;;;0.60;;
73158;SDS011;61370;48.594;10.202;2022-09-09T16:28:53;1.25;;;0.60;;
73158;SDS011;61370;48.594;10.202;2022-09-09T16:31:25;2.00;;;0.55;;
73158;SDS011;61370;48.594;10.202;2022-09-09T16:33:53;2.17;;;0.90;;
73158;SDS011;61370;48.594;10.202;2022-09-09T16:36:21;1.65;;;0.70;;
73158;SDS011;61370;48.594;10.202;2022-09-09T16:38:51;3.83;;;0.80;;
73158;SDS011;61370;48.594;10.202;2022-09-09T16:41:20;2.10;;;0.63;;
73158;SDS011;61370;48.594;10.202;2022-09-09T16:43:47;2.13;;;0.68;;
73158;SDS011;61370;48.594;10.202;2022-09-09T16:46:19;4.53;;;0.80;;
73158;SDS011;61370;48.594;10.202;2022-09-09T16:48:46;6.22;;;0.77;;
73158;SDS011;61370;48.594;10.202;2022-09-09T16:51:14;1.58;;;0.75;;
73158;SDS011;61370;48.594;10.202;2022-09-09T16:53:42;1.90;;;0.60;;
73158;SDS011;61370;48.594;10.202;2022-09-09T16:56:11;4.05;;;0.90;;
73158;SDS011;61370;48.594;10.202;2022-09-09T16:58:42;1.83;;;0.70;;
73158;SDS011;61370;48.594;10.202;2022-09-09T17:01:09;2.38;;;0.73;;
73158;SDS011;61370;48.594;10.202;2022-09-09T17:03:40;4.10;;;0.93;;
73158;SDS011;61370;48.594;10.202;2022-09-09T17:06:14;2.45;;;0.80;;
73158;SDS011;61370;48.594;10.202;2022-09-09T17:08:41;3.67;;;0.80;;
73158;SDS011;61370;48.594;10.202;2022-09-09T17:11:18;4.57;;;0.80;;
73158;SDS011;61370;48.594;10.202;2022-09-09T17:13:46;2.47;;;0.90;;
73158;SDS011;61370;48.594;10.202;2022-09-09T17:16:14;4.75;;;1.02;;
73158;SDS011;61370;48.594;10.202;2022-09-09T17:18:43;2.70;;;0.70;;
73158;SDS011;61370;48.594;10.202;2022-09-09T17:21:11;4.97;;;0.90;;
73158;SDS011;61370;48.594;10.202;2022-09-09T17:23:40;2.55;;;0.80;;
73158;SDS011;61370;48.594;10.202;2022-09-09T17:26:08;1.83;;;0.60;;
73158;SDS011;61370;48.594;10.202;2022-09-09T17:28:38;2.45;;;0.70;;
73158;SDS011;61370;48.594;10.202;2022-09-09T17:31:06;2.30;;;0.80;;
73158;SDS011;61370;48.594;10.202;2022-09-09T17:33:34;4.88;;;1.10;;
73158;SDS011;61370;48.594;10.202;2022-09-09T17:36:07;2.20;;;0.80;;
73158;SDS011;61370;48.594;10.202;2022-09-09T17:38:38;3.03;;;0.90;;